Time;durP1;ratioP1;P1;durP2;ratioP2;P2;SDS_P1;SDS_P2;PMS_P1;PMS_P2;Temp;Humidity;BMP_temperature;BMP_pressure;BME280_temperature;BME280_humidity;BME280_pressure;Samples;Min_cycle;Max_cycle;Signal;HPM_P1;HPM_P2
2020/12/07 00:04:37;;;;;;;94.75;56.70;;;;;;;2.81;54.16;102227.03;5683335;23;20066;-90
2020/12/07 00:07:06;;;;;;;105.88;55.35;;;;;;;1.98;54.93;102130.78;4956574;28;20031;-89
2020/12/07 00:10:12;;;;;;;103.85;59.22;;;;;;;4.71;54.25;102522.91;4977346;28;20003;-96
2020/12/07 00:30:49;;;;;;;102.15;56.50;;;;;;;2.66;54.10;102180.28;5230327;23;20085;-96
2020/12/07 00:33:17;;;;;;;92.60;53.83;;;;;;;3.91;53.35;102371.47;5009307;28;20037;-96
2020/12/07 00:35:44;;;;;;;101.38;55.45;;;;;;;3.81;53.75;102366.13;5008162;28;20022;-96
2020/12/07 00:38:16;;;;;;;99.65;57.90;;;;;;;4.62;53.82;102499.19;5013995;28;20022;-96
2020/12/07 00:40:43;;;;;;;97.85;55.67;;;;;;;3.46;53.71;102305.03;5010521;28;20033;-96
2020/12/07 00:43:13;;;;;;;100.38;57.40;;;;;;;3.50;54.40;102349.38;5043908;28;20029;-96
2020/12/07 00:45:41;;;;;;;122.82;54.47;;;;;;;4.16;54.51;102415.41;4994382;28;20042;-94
2020/12/07 00:48:28;;;;;;;92.47;57.75;;;;;;;3.64;55.01;102347.91;4990733;28;20029;-95
2020/12/07 00:51:09;;;;;;;91.57;55.80;;;;;;;3.69;54.37;102340.91;5006301;28;20034;-96
2020/12/07 00:53:36;;;;;;;97.72;57.53;;;;;;;2.75;54.18;102154.69;5012426;28;20041;-95
2020/12/07 00:56:03;;;;;;;103.75;57.13;;;;;;;3.77;54.40;102331.88;5010758;28;20034;-96
2020/12/07 00:58:30;;;;;;;98.30;59.13;;;;;;;3.29;54.35;102202.81;5010074;28;20034;-94
2020/12/07 01:01:00;;;;;;;105.35;58.17;;;;;;;3.36;55.72;102313.38;5004281;28;20034;-95
2020/12/07 01:03:53;;;;;;;103.03;58.65;;;;;;;2.65;55.20;102190.38;5015129;28;20030;-95
2020/12/07 01:06:32;;;;;;;98.05;57.80;;;;;;;3.66;54.44;102319.34;5035982;28;20034;-96
2020/12/07 01:09:04;;;;;;;91.35;54.88;;;;;;;2.57;54.32;102125.53;5016003;28;20404;-95
2020/12/07 01:14:46;;;;;;;104.32;55.15;;;;;;;2.94;55.41;102193.75;5037271;28;20021;-96
2020/12/07 01:17:19;;;;;;;99.38;55.97;;;;;;;4.72;54.59;102485.34;5001376;28;20032;-95
2020/12/07 01:19:46;;;;;;;97.80;55.22;;;;;;;4.97;54.25;102478.00;5020652;28;20114;-94
2020/12/07 01:22:13;;;;;;;110.20;57.95;;;;;;;4.31;55.13;102417.50;5019078;28;20026;-96
2020/12/07 01:24:40;;;;;;;94.57;54.97;;;;;;;3.21;55.17;102260.25;5014709;28;20025;-95
2020/12/07 01:27:26;;;;;;;93.50;51.10;;;;;;;3.84;53.66;102332.06;5016953;28;20014;-96
2020/12/07 01:29:59;;;;;;;110.95;54.72;;;;;;;1.47;54.15;101981.25;5020459;28;20026;-96
2020/12/07 01:32:30;;;;;;;102.95;53.60;;;;;;;4.79;53.30;102490.00;5021264;28;20249;-95
2020/12/07 01:34:57;;;;;;;95.15;56.17;;;;;;;1.67;54.50;102036.53;5010238;28;20034;-95
2020/12/07 01:37:25;;;;;;;87.05;51.55;;;;;;;3.52;52.37;102330.91;5023088;28;20030;-95
2020/12/07 01:40:27;;;;;;;94.22;52.83;;;;;;;3.01;52.13;102179.28;5207436;23;20056;-90
2020/12/07 01:43:21;;;;;;;98.18;56.55;;;;;;;4.96;51.57;102483.66;5100024;23;20026;-90
2020/12/07 01:45:57;;;;;;;87.93;51.80;;;;;;;3.22;51.13;102218.19;5028747;28;20099;-95
2020/12/07 01:48:26;;;;;;;94.82;51.70;;;;;;;2.29;50.36;101994.53;5016646;28;20030;-95
2020/12/07 01:50:55;;;;;;;90.20;50.65;;;;;;;4.39;50.77;102401.06;4988292;28;20034;-95
2020/12/07 01:53:25;;;;;;;91.65;50.30;;;;;;;4.90;50.37;102430.31;5034022;28;20025;-95
2020/12/07 01:55:57;;;;;;;87.28;51.35;;;;;;;5.25;49.74;102424.63;5036988;28;20029;-95
2020/12/07 01:58:26;;;;;;;91.57;54.00;;;;;;;5.43;49.60;102469.28;5005957;28;20034;-92
2020/12/07 02:00:54;;;;;;;96.90;52.60;;;;;;;3.37;50.18;102183.66;4996421;28;20038;-95
2020/12/07 02:03:32;;;;;;;87.72;47.95;;;;;;;3.40;51.28;102253.66;5014811;28;20045;-96
2020/12/07 02:06:05;;;;;;;84.25;49.55;;;;;;;3.29;51.32;102230.19;5030988;28;20030;-96
2020/12/07 02:08:36;;;;;;;93.25;55.88;;;;;;;4.61;51.76;102401.47;5014516;28;20038;-96
2020/12/07 02:11:06;;;;;;;;;;;;;;;5.19;50.64;102472.88;5028160;28;20033;-96
2020/12/07 02:13:33;;;;;;;78.07;48.40;;;;;;;4.09;50.04;102318.41;5008962;28;19917;-96
2020/12/07 02:16:00;;;;;;;87.05;49.53;;;;;;;5.39;49.47;102478.88;5024056;28;20478;-96
2020/12/07 02:19:07;;;;;;;95.40;50.28;;;;;;;4.95;50.21;102480.06;5006357;28;20034;-95
2020/12/07 02:21:35;;;;;;;78.80;47.65;;;;;;;3.98;48.07;102289.44;5005563;28;20018;-95
2020/12/07 02:24:25;;;;;;;90.07;50.92;;;;;;;4.08;49.19;102278.31;5023803;28;20020;-96
2020/12/07 02:26:58;;;;;;;97.85;55.13;;;;;;;3.15;49.99;102168.69;5038509;28;20018;-96
2020/12/07 02:36:56;;;;;;;78.50;47.72;;;;;;;5.18;49.41;102462.94;5037429;28;20049;-96
2020/12/07 02:42:17;;;;;;;78.00;41.35;;;;;;;2.50;46.44;101995.13;5303408;23;20046;-91
2020/12/07 02:44:50;;;;;;;67.07;38.92;;;;;;;4.69;44.82;102384.16;4983023;28;20045;-95
2020/12/07 02:47:40;;;;;;;72.65;44.30;;;;;;;3.12;43.87;102115.16;4989510;28;20041;-95
2020/12/07 02:53:25;;;;;;;75.38;39.53;;;;;;;3.45;44.50;102160.06;5562696;23;20059;-95
2020/12/07 02:55:57;;;;;;;81.90;43.17;;;;;;;3.92;43.35;102173.13;5012938;28;20018;-95
2020/12/07 02:58:44;;;;;;;;;;;;;;;5.57;43.73;102448.47;5013317;28;20021;-96
2020/12/07 03:01:45;;;;;;;73.60;39.30;;;;;;;3.60;43.85;102172.09;4942356;29;19992;-96
2020/12/07 03:04:13;;;;;;;74.90;39.53;;;;;;;2.53;44.20;101987.44;4937009;29;20051;-96
2020/12/07 03:09:08;;;;;;;77.13;44.85;;;;;;;4.74;47.38;102451.22;4990915;28;20440;-95
2020/12/07 03:11:46;;;;;;;69.90;43.28;;;;;;;4.08;46.35;102278.31;4977042;28;20030;-94
2020/12/07 03:14:49;;;;;;;84.57;45.38;;;;;;;2.10;46.68;101921.00;4978254;28;20026;-95
2020/12/07 03:17:40;;;;;;;79.13;42.60;;;;;;;3.62;46.07;102172.75;4996705;28;20050;-95
2020/12/07 03:20:09;;;;;;;73.30;41.78;;;;;;;2.57;46.32;102007.94;4997482;28;20027;-96
2020/12/07 03:22:36;;;;;;;70.95;40.00;;;;;;;5.49;45.50;102451.22;4975518;28;20031;-94
2020/12/07 03:25:06;;;;;;;71.25;39.17;;;;;;;4.97;45.80;102375.56;4982421;28;20018;-94
2020/12/07 03:27:34;;;;;;;69.15;36.05;;;;;;;2.93;44.94;101981.38;4965548;28;20026;-95
2020/12/07 03:30:04;;;;;;;65.25;38.00;;;;;;;5.45;44.69;102416.88;4967180;28;20090;-94
2020/12/07 03:32:36;;;;;;;74.60;41.75;;;;;;;3.87;43.15;102194.69;4997992;28;20038;-95
2020/12/07 03:35:07;;;;;;;74.85;39.90;;;;;;;3.22;43.65;102075.84;4965446;28;20022;-95
2020/12/07 03:37:36;;;;;;;69.43;39.25;;;;;;;1.94;42.84;101843.44;4981611;28;20065;-96
2020/12/07 03:43:47;;;;;;;73.50;41.13;;;;;;;3.20;42.25;102007.56;4999304;28;20081;-95
2020/12/07 03:46:21;;;;;;;67.60;36.40;;;;;;;5.26;41.68;102394.25;4975741;28;20019;-93
2020/12/07 03:48:53;;;;;;;74.20;39.05;;;;;;;4.76;42.90;102335.81;4981789;28;20022;-95
2020/12/07 03:51:25;;;;;;;67.55;37.70;;;;;;;5.42;41.31;102409.00;4989421;28;20023;-96
2020/12/07 03:53:53;;;;;;;63.80;36.10;;;;;;;4.86;41.44;102406.97;4956918;28;20469;-96
2020/12/07 03:56:21;;;;;;;66.07;35.97;;;;;;;4.49;41.53;102319.50;4997824;28;20033;-95
2020/12/07 03:58:49;;;;;;;60.83;35.53;;;;;;;4.03;40.25;102193.88;4981608;28;20019;-93
2020/12/07 04:01:17;;;;;;;61.60;34.85;;;;;;;3.64;40.72;102178.91;4956821;28;20027;-96
2020/12/07 04:04:14;;;;;;;72.15;36.45;;;;;;;4.71;41.54;102412.28;4986962;28;20031;-96
2020/12/07 04:07:13;;;;;;;65.15;32.13;;;;;;;4.00;40.59;102260.00;4995403;28;20035;-96
2020/12/07 04:10:06;;;;;;;62.60;34.72;;;;;;;4.95;40.71;102416.94;4989400;28;20038;-96
2020/12/07 04:12:39;;;;;;;50.72;26.92;;;;;;;5.16;38.84;102408.16;4991074;28;20039;-95
2020/12/07 04:15:07;;;;;;;52.70;29.60;;;;;;;4.09;38.03;102294.63;4993080;28;20039;-96
2020/12/07 04:18:04;;;;;;;46.47;25.02;;;;;;;5.00;38.31;102439.22;4997432;28;20023;-95
2020/12/07 04:20:44;;;;;;;47.92;28.48;;;;;;;4.79;38.00;102346.41;4963198;28;20073;-93
2020/12/07 04:23:21;;;;;;;54.95;26.73;;;;;;;5.01;38.19;102410.75;4995782;28;20127;-96
2020/12/07 04:25:57;;;;;;;49.47;26.50;;;;;;;5.26;37.93;102429.97;4984990;28;20035;-96
2020/12/07 05:25:40;;;;;;;45.83;23.60;;;;;;;4.74;40.27;102379.00;4912304;23;19938;-86
2020/12/07 05:28:13;;;;;;;48.17;27.25;;;;;;;3.78;41.08;102302.56;4922776;29;20040;-88
2020/12/07 05:30:59;;;;;;;54.92;29.42;;;;;;;4.28;40.42;102372.09;4907182;29;20032;-84
2020/12/07 05:33:36;;;;;;;55.35;27.42;;;;;;;2.66;37.98;102060.81;4924664;29;20020;-88
2020/12/07 05:43:12;;;;;;;45.50;26.77;;;;;;;4.38;38.54;102404.84;4905308;29;20036;-87
2020/12/07 05:49:53;;;;;;;56.30;27.88;;;;;;;4.29;38.47;102411.34;4906228;29;20045;-83
2020/12/07 05:52:53;;;;;;;47.90;28.08;;;;;;;4.43;38.55;102399.72;4889735;29;20028;-89
2020/12/07 06:02:23;;;;;;;46.45;28.15;;;;;;;1.09;40.60;101869.63;4905713;29;20045;-84
2020/12/07 06:14:32;;;;;;;48.88;28.05;;;;;;;4.52;40.69;102412.41;4887041;29;20035;-84
2020/12/07 06:17:00;;;;;;;57.13;28.98;;;;;;;4.44;41.78;102458.16;4870467;29;20093;-83
2020/12/07 06:19:32;;;;;;;52.53;29.77;;;;;;;0.65;42.47;101849.50;4869716;29;20058;-83
2020/12/07 06:30:06;;;;;;;45.47;25.95;;;;;;;4.26;42.71;102422.66;4922502;23;20089;-95
2020/12/07 06:32:52;;;;;;;60.38;30.20;;;;;;;4.36;43.37;102415.13;4892695;29;20451;-96
2020/12/07 06:35:55;;;;;;;56.60;32.90;;;;;;;3.67;44.05;102334.75;4893453;29;20037;-96
2020/12/07 06:38:44;;;;;;;61.08;29.77;;;;;;;4.26;44.07;102411.69;4857624;29;20073;-96
2020/12/07 06:41:11;;;;;;;55.17;30.58;;;;;;;3.47;44.39;102289.44;4876603;29;20047;-94
2020/12/07 06:43:38;;;;;;;59.70;31.15;;;;;;;3.73;43.50;102378.94;4898983;29;20032;-95
2020/12/07 06:46:07;;;;;;;63.80;30.87;;;;;;;3.69;44.08;102340.91;4915762;29;20039;-96
2020/12/07 06:48:39;;;;;;;56.75;31.85;;;;;;;3.85;43.47;102328.28;4890375;29;20068;-95
2020/12/07 06:51:06;;;;;;;52.22;29.60;;;;;;;4.29;43.49;102428.66;4889878;29;20025;-96
2020/12/07 06:56:00;;;;;;;55.65;28.35;;;;;;;3.87;42.89;102353.63;4905429;29;20084;-95
2020/12/07 06:58:34;;;;;;;56.17;26.60;;;;;;;4.05;43.20;102400.13;4888517;29;20025;-95
2020/12/07 07:01:11;;;;;;;47.75;26.30;;;;;;;3.23;41.37;102252.72;4888422;29;20119;-95
2020/12/07 07:03:57;;;;;;;43.97;23.73;;;;;;;4.31;40.46;102436.72;4906857;29;20051;-96
2020/12/07 07:06:24;;;;;;;52.85;24.85;;;;;;;4.02;40.76;102435.22;4888815;29;20321;-95
2020/12/07 07:08:54;;;;;;;50.90;26.15;;;;;;;3.55;41.30;102397.16;4889691;29;20028;-95
2020/12/07 07:11:20;;;;;;;44.42;23.60;;;;;;;3.98;41.47;102445.66;4900298;29;20088;-96
2020/12/07 07:13:50;;;;;;;37.28;21.80;;;;;;;3.41;40.92;102321.09;4904434;29;20033;-95
2020/12/07 07:16:18;;;;;;;50.13;25.52;;;;;;;3.17;42.32;102330.91;4887423;29;20081;-95
2020/12/07 07:18:45;;;;;;;47.72;22.75;;;;;;;3.52;42.38;102358.28;4895611;29;20032;-87
2020/12/07 07:21:15;;;;;;;40.72;22.42;;;;;;;3.77;42.74;102446.06;4906006;29;20036;-93
2020/12/07 07:23:45;;;;;;;45.58;20.20;;;;;;;1.30;41.81;102034.84;4890790;29;20016;-95
2020/12/07 07:26:24;;;;;;;36.50;22.60;;;;;;;4.00;41.26;102429.94;4905964;29;20024;-94
2020/12/07 07:28:52;;;;;;;39.85;20.40;;;;;;;3.56;41.26;102387.06;4905132;29;20059;-93
2020/12/07 07:31:19;;;;;;;45.08;21.45;;;;;;;3.13;40.88;102267.41;4902358;29;20033;-96
2020/12/07 07:33:49;;;;;;;35.38;20.95;;;;;;;2.99;39.80;102241.50;4903743;29;20056;-96
2020/12/07 07:36:23;;;;;;;38.50;20.13;;;;;;;3.80;40.26;102449.34;4901479;29;20064;-96
2020/12/07 07:39:00;;;;;;;41.53;24.25;;;;;;;3.13;40.55;102324.88;4892314;29;20020;-94
2020/12/07 07:41:30;;;;;;;53.08;22.20;;;;;;;3.79;40.43;102433.94;4892222;29;20036;-94
2020/12/07 07:43:58;;;;;;;47.40;22.38;;;;;;;3.70;41.56;102430.28;4891500;29;20036;-93
2020/12/07 07:46:31;;;;;;;39.58;22.17;;;;;;;3.89;40.84;102439.28;4888679;29;20056;-95
2020/12/07 07:49:23;;;;;;;41.08;23.92;;;;;;;3.40;41.75;102393.31;4861117;29;20072;-95
2020/12/07 08:12:09;;;;;;;31.13;17.55;;;;;;;3.12;40.74;102431.78;4904175;29;20092;-95
2020/12/07 08:17:18;;;;;;;39.45;18.67;;;;;;;3.17;42.65;102469.63;4903402;29;20559;-96
2020/12/07 08:19:48;;;;;;;32.95;18.67;;;;;;;3.19;42.80;102470.31;4905792;29;20028;-96
2020/12/07 08:22:17;;;;;;;35.58;18.35;;;;;;;3.36;42.86;102510.50;4871702;29;20056;-94
2020/12/07 08:25:05;;;;;;;31.13;16.35;;;;;;;3.06;43.18;102477.06;4885749;29;20056;-94
2020/12/07 08:27:37;;;;;;;35.13;16.88;;;;;;;1.79;43.53;102282.91;4908356;29;20104;-93
2020/12/07 08:30:08;;;;;;;32.60;17.45;;;;;;;2.42;44.04;102406.00;4909988;29;20052;-94
2020/12/07 08:32:34;;;;;;;;;;;;;;;3.22;43.56;102513.81;4890238;29;20104;-95
2020/12/07 08:35:13;;;;;;;34.55;18.92;;;;;;;2.56;44.38;102391.78;4887143;29;19946;-95
2020/12/07 08:37:45;;;;;;;36.75;18.10;;;;;;;3.09;44.90;102526.00;4887086;29;20129;-96
2020/12/07 08:40:12;;;;;;;36.45;18.70;;;;;;;3.19;44.51;102519.59;4887294;29;20092;-94
2020/12/07 08:42:39;;;;;;;35.05;17.58;;;;;;;2.92;44.85;102518.66;4886963;29;20044;-96
2020/12/07 08:45:05;;;;;;;36.17;15.85;;;;;;;2.83;45.01;102493.06;4887203;29;20120;-95
2020/12/07 08:47:33;;;;;;;35.33;17.67;;;;;;;3.05;44.64;102538.28;4887615;29;20044;-96
2020/12/07 08:50:00;;;;;;;40.55;18.30;;;;;;;2.77;45.58;102486.38;4871054;29;20033;-96
2020/12/07 08:52:30;;;;;;;35.38;18.35;;;;;;;2.53;45.03;102460.47;4889238;29;20025;-94
2020/12/07 08:54:57;;;;;;;32.30;15.90;;;;;;;3.04;45.27;102544.78;4865839;29;20563;-93
2020/12/07 08:57:24;;;;;;;32.78;16.77;;;;;;;2.92;45.02;102540.53;4885500;29;20382;-95
2020/12/07 08:59:51;;;;;;;34.70;16.50;;;;;;;2.48;45.29;102460.06;4884280;29;20089;-96
2020/12/07 09:02:17;;;;;;;35.35;17.02;;;;;;;3.02;44.41;102549.53;4886894;29;20032;-96
2020/12/07 09:04:44;;;;;;;32.28;15.27;;;;;;;2.89;43.60;102551.81;4887623;29;20068;-96
2020/12/07 09:07:11;;;;;;;39.83;18.42;;;;;;;2.19;44.91;102463.81;4886736;29;20033;-95
2020/12/07 09:09:38;;;;;;;35.33;16.48;;;;;;;2.46;44.69;102514.06;4888414;29;20025;-94
2020/12/07 09:12:05;;;;;;;38.20;16.90;;;;;;;2.46;44.05;102470.31;4885342;29;20031;-96
2020/12/07 09:14:31;;;;;;;32.58;16.67;;;;;;;2.38;43.91;102479.25;4885754;29;20064;-95
2020/12/07 09:16:58;;;;;;;28.85;16.52;;;;;;;2.59;43.72;102533.69;4889272;29;20033;-95
2020/12/07 09:19:25;;;;;;;35.28;18.52;;;;;;;2.80;43.93;102568.09;4890225;29;20065;-96
2020/12/07 09:21:52;;;;;;;37.60;17.67;;;;;;;2.78;43.74;102592.03;4888852;29;20036;-95
2020/12/07 09:24:19;;;;;;;37.60;18.42;;;;;;;2.09;44.00;102482.16;4891029;29;20032;-96
2020/12/07 09:26:47;;;;;;;31.35;17.25;;;;;;;2.04;44.32;102479.88;4895293;29;20100;-96
2020/12/07 09:29:34;;;;;;;35.30;17.52;;;;;;;2.22;44.25;102501.81;4900234;29;20061;-94
2020/12/07 09:32:10;;;;;;;34.50;17.35;;;;;;;0.82;45.32;102272.25;4891701;29;20495;-96
2020/12/07 09:34:40;;;;;;;35.03;17.27;;;;;;;2.25;45.47;102512.41;4893068;29;20035;-96
2020/12/07 09:37:08;;;;;;;41.17;18.80;;;;;;;2.41;46.16;102554.66;4894583;29;20493;-96
2020/12/07 09:39:35;;;;;;;38.83;18.65;;;;;;;1.20;46.57;102376.81;4875702;29;20037;-94
2020/12/07 09:42:02;;;;;;;31.05;17.98;;;;;;;1.05;46.64;102330.06;4892483;29;20084;-92
2020/12/07 09:44:28;;;;;;;43.38;20.60;;;;;;;2.09;46.63;102506.75;4890440;29;20068;-91
2020/12/07 09:46:55;;;;;;;17.67;10.75;;;;;;;2.01;46.63;102502.88;4887141;29;20048;-92
2020/12/07 09:49:22;;;;;;;34.33;17.48;;;;;;;1.44;46.71;102405.50;4888250;29;20040;-94
2020/12/07 09:51:49;;;;;;;37.35;19.30;;;;;;;2.43;47.89;102590.88;4892870;29;20056;-93
2020/12/07 09:54:16;;;;;;;29.33;15.23;;;;;;;2.03;47.35;102509.06;4891828;29;20566;-95
2020/12/07 09:56:43;;;;;;;40.38;19.58;;;;;;;2.14;47.81;102518.09;4893919;29;20028;-94
2020/12/07 09:59:12;;;;;;;41.28;21.30;;;;;;;1.40;47.75;102400.47;4877745;29;20055;-95
2020/12/07 10:01:38;;;;;;;33.88;16.60;;;;;;;2.53;47.90;102579.91;4885564;29;20041;-94
2020/12/07 10:04:05;;;;;;;34.67;16.40;;;;;;;1.76;48.28;102488.91;4885732;29;20036;-94
2020/12/07 10:06:32;;;;;;;35.65;16.83;;;;;;;1.40;48.36;102461.38;4887650;29;20033;-96
2020/12/07 10:08:59;;;;;;;39.40;20.42;;;;;;;1.62;49.13;102511.22;4890322;29;20555;-95
2020/12/07 10:11:26;;;;;;;39.15;20.67;;;;;;;1.63;49.00;102477.44;4888663;29;20092;-93
2020/12/07 10:13:52;;;;;;;31.00;17.90;;;;;;;2.11;49.62;102581.22;4886398;29;20043;-93
2020/12/07 10:16:19;;;;;;;35.97;17.92;;;;;;;2.18;50.14;102591.44;4887188;29;20032;-94
2020/12/07 10:18:49;;;;;;;38.97;18.83;;;;;;;1.60;50.12;102510.50;4887564;29;20024;-94
2020/12/07 10:21:19;;;;;;;38.13;20.70;;;;;;;1.45;50.19;102491.84;4886183;29;20072;-95
2020/12/07 10:23:46;;;;;;;43.67;22.55;;;;;;;2.04;50.74;102591.91;4887157;29;20036;-94
2020/12/07 10:26:13;;;;;;;36.25;18.30;;;;;;;1.12;50.57;102454.97;4886626;29;20028;-95
2020/12/07 10:28:40;;;;;;;32.85;16.73;;;;;;;1.53;50.17;102502.00;4883681;29;20360;-94
2020/12/07 10:31:06;;;;;;;37.17;19.98;;;;;;;1.26;50.66;102480.94;4885287;29;20036;-93
2020/12/07 10:33:33;;;;;;;39.83;20.02;;;;;;;1.76;50.59;102543.50;4884614;29;20032;-92
2020/12/07 10:36:00;;;;;;;34.78;18.75;;;;;;;2.07;51.25;102612.59;4883540;29;20096;-93
2020/12/07 10:38:26;;;;;;;41.33;19.25;;;;;;;2.03;50.53;102623.81;4884081;29;20029;-91
2020/12/07 10:40:53;;;;;;;37.58;21.65;;;;;;;1.19;50.59;102484.25;4886419;29;20036;-91
2020/12/07 10:43:20;;;;;;;36.20;18.95;;;;;;;-0.16;49.05;102293.09;4882442;29;20032;-90
2020/12/07 10:45:47;;;;;;;34.30;19.73;;;;;;;0.66;49.91;102385.50;4881798;29;20083;-87
2020/12/07 10:48:13;;;;;;;42.58;19.35;;;;;;;1.80;50.26;102563.19;4882830;29;20028;-90
2020/12/07 10:50:40;;;;;;;38.80;19.15;;;;;;;1.47;50.09;102541.69;4883331;29;20036;-95
2020/12/07 10:53:07;;;;;;;36.17;19.20;;;;;;;0.04;50.59;102316.78;4883832;29;20032;-95
2020/12/07 10:55:34;;;;;;;36.58;16.73;;;;;;;0.76;49.82;102431.00;4884175;29;20055;-92
2020/12/07 10:58:01;;;;;;;36.80;18.30;;;;;;;1.78;49.85;102622.56;4883142;29;20029;-92
2020/12/07 11:00:27;;;;;;;38.20;18.98;;;;;;;1.82;48.65;102623.13;4882848;29;20044;-94
2020/12/07 11:02:54;;;;;;;34.05;18.20;;;;;;;1.15;48.46;102515.56;4884553;29;20028;-92
2020/12/07 11:05:21;;;;;;;43.85;19.90;;;;;;;1.08;48.89;102503.50;4882963;29;20068;-92
2020/12/07 11:07:51;;;;;;;32.25;17.80;;;;;;;1.25;47.85;102503.78;4883692;29;20040;-94
2020/12/07 11:10:18;;;;;;;27.23;13.47;;;;;;;0.20;47.74;102338.03;4883400;29;20060;-92
2020/12/07 11:12:49;;;;;;;33.17;17.38;;;;;;;0.46;47.80;102421.97;4883948;29;20300;-94
2020/12/07 11:15:18;;;;;;;37.53;18.60;;;;;;;1.29;47.71;102529.75;4885288;29;20033;-96
2020/12/07 11:17:45;;;;;;;37.42;19.38;;;;;;;1.49;48.06;102556.03;4884290;29;20024;-93
2020/12/07 11:20:11;;;;;;;39.50;19.63;;;;;;;0.82;48.34;102438.59;4866218;29;20029;-91
2020/12/07 11:22:38;;;;;;;32.95;17.30;;;;;;;0.08;47.96;102316.38;4871868;29;20077;-88
2020/12/07 11:25:05;;;;;;;38.33;19.63;;;;;;;0.09;48.24;102323.53;4870821;29;20392;-88
2020/12/07 11:27:32;;;;;;;38.97;20.60;;;;;;;0.97;47.85;102468.16;4868622;29;20092;-89
2020/12/07 11:29:58;;;;;;;37.38;19.10;;;;;;;1.69;47.12;102612.50;4878687;29;20049;-87
2020/12/07 11:32:25;;;;;;;39.13;17.52;;;;;;;0.87;47.09;102481.81;4884831;29;20096;-96
2020/12/07 11:34:55;;;;;;;31.70;17.55;;;;;;;1.26;47.50;102538.25;4889666;29;20072;-95
2020/12/07 11:37:22;;;;;;;34.65;19.13;;;;;;;1.63;47.53;102611.22;4886787;29;20570;-90
2020/12/07 11:39:55;;;;;;;37.97;17.15;;;;;;;1.61;47.24;102614.09;4896757;29;20036;-90
2020/12/07 11:42:43;;;;;;;37.05;19.80;;;;;;;0.94;47.14;102485.69;4882640;29;20044;-92
2020/12/07 11:45:09;;;;;;;42.05;23.48;;;;;;;0.39;47.48;102375.31;4880797;29;20123;-89
2020/12/07 11:47:36;;;;;;;33.88;16.88;;;;;;;1.03;47.34;102516.69;4899323;29;20036;-93
2020/12/07 11:50:04;;;;;;;29.67;17.55;;;;;;;1.54;47.43;102612.94;4882440;29;20127;-92
2020/12/07 11:52:31;;;;;;;39.85;19.10;;;;;;;1.07;47.15;102550.91;4883386;29;20039;-89
2020/12/07 11:54:58;;;;;;;26.60;14.15;;;;;;;1.52;46.30;102625.00;4885721;29;20029;-92
2020/12/07 11:57:25;;;;;;;34.17;17.10;;;;;;;1.29;47.37;102625.28;4887197;29;20027;-90
2020/12/07 11:59:51;;;;;;;30.85;17.40;;;;;;;0.84;47.44;102521.16;4884780;29;20056;-91
2020/12/07 12:02:18;;;;;;;32.20;16.63;;;;;;;1.37;47.28;102609.09;4882858;29;20024;-89
2020/12/07 12:04:45;;;;;;;41.70;16.50;;;;;;;1.61;46.71;102624.16;4884721;29;20060;-93
2020/12/07 12:07:12;;;;;;;41.78;18.52;;;;;;;0.94;47.28;102583.88;4886128;29;20032;-91
2020/12/07 12:09:39;;;;;;;31.23;17.08;;;;;;;0.85;46.69;102544.69;4882207;29;20123;-90
2020/12/07 12:12:05;;;;;;;30.45;16.52;;;;;;;1.45;46.88;102625.59;4882195;29;20029;-93
2020/12/07 12:14:32;;;;;;;34.92;15.35;;;;;;;1.00;46.14;102544.28;4886295;29;20032;-91
2020/12/07 12:16:59;;;;;;;28.17;14.80;;;;;;;1.44;46.15;102623.88;4879981;29;20160;-92
2020/12/07 12:19:26;;;;;;;30.30;14.50;;;;;;;1.04;46.65;102562.94;4889600;29;20134;-95
2020/12/07 12:21:54;;;;;;;31.73;13.43;;;;;;;1.25;46.43;102641.06;4886230;29;20028;-95
2020/12/07 12:24:21;;;;;;;25.45;12.13;;;;;;;1.30;46.38;102619.69;4907763;29;20100;-94
2020/12/07 12:26:51;;;;;;;27.20;14.73;;;;;;;0.88;46.91;102552.56;4906168;29;20036;-96
2020/12/07 12:29:19;;;;;;;27.85;14.00;;;;;;;0.93;47.00;102582.16;4904459;29;20062;-95
2020/12/07 12:35:13;;;;;;;20.83;12.00;;;;;;;1.11;47.32;102612.34;4941944;28;20031;-93
2020/12/07 12:37:39;;;;;;;26.25;11.73;;;;;;;1.59;46.22;102620.69;4907762;29;20137;-94
2020/12/07 12:40:06;;;;;;;26.73;12.73;;;;;;;1.14;46.86;102579.34;4907217;29;20020;-96
2020/12/07 12:42:33;;;;;;;24.13;12.02;;;;;;;1.11;46.43;102600.59;4908290;29;20371;-96
2020/12/07 12:45:00;;;;;;;25.15;12.65;;;;;;;1.09;46.56;102593.38;4907203;29;20020;-96
2020/12/07 12:47:26;;;;;;;20.98;11.75;;;;;;;1.06;46.50;102592.78;4906391;29;20062;-96
2020/12/07 12:49:53;;;;;;;25.25;11.45;;;;;;;1.00;46.75;102577.00;4902712;29;20034;-96
2020/12/07 12:52:20;;;;;;;26.33;13.60;;;;;;;0.51;47.71;102512.31;4908061;29;20495;-96
2020/12/07 12:54:47;;;;;;;21.42;12.60;;;;;;;0.45;47.24;102491.94;4907703;29;20040;-96
2020/12/07 12:57:14;;;;;;;23.90;11.90;;;;;;;0.88;47.51;102554.47;4907856;29;20020;-96
2020/12/07 12:59:40;;;;;;;21.63;12.77;;;;;;;1.09;47.45;102567.97;4908087;29;20064;-96
2020/12/07 13:02:09;;;;;;;20.20;10.93;;;;;;;0.65;47.92;102524.72;4907519;29;20039;-96
2020/12/07 13:04:35;;;;;;;24.23;14.02;;;;;;;1.23;47.96;102603.03;4908458;29;20446;-96
2020/12/07 13:07:02;;;;;;;23.10;12.75;;;;;;;0.97;48.04;102556.34;4907475;29;20033;-93
2020/12/07 13:09:29;;;;;;;22.63;12.10;;;;;;;1.23;48.44;102616.69;4907086;29;20016;-93
2020/12/07 13:11:56;;;;;;;21.23;10.45;;;;;;;1.32;48.04;102622.28;4907547;29;20036;-94
2020/12/07 13:14:22;;;;;;;29.83;12.75;;;;;;;1.35;48.02;102625.59;4903611;29;20076;-94
2020/12/07 13:17:02;;;;;;;21.52;12.18;;;;;;;0.61;48.22;102535.03;4904769;29;20478;-94
2020/12/07 13:19:29;;;;;;;19.50;9.57;;;;;;;0.62;48.98;102541.31;4900575;29;20037;-96
2020/12/07 13:22:04;;;;;;;23.10;13.32;;;;;;;1.01;49.56;102616.94;4902304;29;20132;-95
2020/12/07 13:24:42;;;;;;;22.48;11.88;;;;;;;0.54;49.08;102491.09;4905277;29;20048;-94
2020/12/07 13:27:18;;;;;;;22.30;10.63;;;;;;;1.22;49.13;102608.63;4903858;29;20036;-96
2020/12/07 13:29:46;;;;;;;24.73;13.23;;;;;;;-0.45;49.55;102358.34;4895017;29;20044;-94
2020/12/07 13:32:13;;;;;;;22.83;10.80;;;;;;;0.66;49.62;102513.63;4888089;29;20074;-94
2020/12/07 13:34:39;;;;;;;20.33;11.98;;;;;;;0.52;49.87;102504.00;4888721;29;20132;-94
2020/12/07 13:37:06;;;;;;;20.08;10.40;;;;;;;1.29;49.88;102611.63;4890121;29;20013;-94
2020/12/07 13:39:33;;;;;;;17.20;10.43;;;;;;;1.06;50.86;102618.22;4900735;29;20036;-95
2020/12/07 13:42:00;;;;;;;18.42;9.85;;;;;;;1.30;51.24;102605.19;4911819;29;20073;-93
2020/12/07 13:44:27;;;;;;;17.02;10.10;;;;;;;1.45;50.39;102613.81;4902592;29;20837;-93
2020/12/07 13:47:00;;;;;;;20.70;11.13;;;;;;;1.35;50.69;102591.97;4888155;29;20403;-95
2020/12/07 13:49:26;;;;;;;19.83;11.93;;;;;;;1.38;51.21;102615.38;4893948;29;20103;-93
2020/12/07 13:51:54;;;;;;;26.70;11.25;;;;;;;-0.25;51.36;102407.44;4886934;29;20033;-95
2020/12/07 13:54:21;;;;;;;18.65;10.20;;;;;;;0.66;51.25;102510.91;4898853;29;20029;-95
2020/12/07 13:56:47;;;;;;;19.83;11.15;;;;;;;1.09;52.08;102609.75;4887183;29;20073;-96
2020/12/07 13:59:14;;;;;;;23.95;11.85;;;;;;;1.21;51.79;102617.81;4886873;29;20101;-95
2020/12/07 14:01:41;;;;;;;20.48;11.45;;;;;;;1.08;52.32;102635.31;4873299;29;20068;-96
2020/12/07 14:06:51;;;;;;;26.80;11.98;;;;;;;1.02;52.45;102567.66;4906313;29;20025;-95
2020/12/07 14:09:20;;;;;;;23.42;11.75;;;;;;;0.61;51.69;102491.41;4890359;29;20028;-95
2020/12/07 14:11:48;;;;;;;18.13;9.77;;;;;;;0.74;52.20;102559.31;4905403;29;20039;-95
2020/12/07 14:14:15;;;;;;;21.17;11.90;;;;;;;0.95;52.16;102591.91;4906103;29;20099;-93
2020/12/07 14:16:45;;;;;;;23.65;13.80;;;;;;;-0.36;51.95;102373.00;4906343;29;20029;-93
2020/12/07 14:19:19;;;;;;;31.60;12.32;;;;;;;0.75;51.86;102577.38;4921838;29;20032;-93
2020/12/07 14:40:21;;;;;;;23.95;12.77;;;;;;;0.28;51.99;102558.84;4923149;29;20067;-96
2020/12/07 14:42:48;;;;;;;23.33;11.93;;;;;;;-0.05;51.88;102490.91;4892803;29;20044;-94